sensor_id;sensor_type;location;lat;lon;timestamp;pressure;altitude;pressure_sealevel;temperature;humidity
36454;BME280;22478;51.740;-1.314;2023-05-16T00:00:39;101160.41;;;2.72;100.00
36454;BME280;22478;51.740;-1.314;2023-05-16T00:03:06;101161.90;;;4.26;100.00
36454;BME280;22478;51.740;-1.314;2023-05-16T00:05:34;101160.89;;;4.95;100.00
36454;BME280;22478;51.740;-1.314;2023-05-16T00:08:01;101172.78;;;1.59;100.00
36454;BME280;22478;51.740;-1.314;2023-05-16T00:10:28;101165.01;;;3.79;100.00
36454;BME280;22478;51.740;-1.314;2023-05-16T00:12:56;101163.89;;;3.24;100.00
36454;BME280;22478;51.740;-1.314;2023-05-16T00:15:23;101163.65;;;5.11;98.29
36454;BME280;22478;51.740;-1.314;2023-05-16T00:17:50;101166.70;;;4.18;100.00
36454;BME280;22478;51.740;-1.314;2023-05-16T00:20:17;101168.58;;;3.33;100.00
36454;BME280;22478;51.740;-1.314;2023-05-16T00:22:44;101170.92;;;4.46;100.00
36454;BME280;22478;51.740;-1.314;2023-05-16T00:25:11;101163.68;;;5.20;91.49
36454;BME280;22478;51.740;-1.314;2023-05-16T00:27:39;101163.69;;;3.43;100.00
36454;BME280;22478;51.740;-1.314;2023-05-16T00:30:07;101156.94;;;6.19;89.88
36454;BME280;22478;51.740;-1.314;2023-05-16T00:32:35;101153.37;;;7.21;87.27
36454;BME280;22478;51.740;-1.314;2023-05-16T00:35:02;101151.28;;;6.54;85.60
36454;BME280;22478;51.740;-1.314;2023-05-16T00:37:30;101155.17;;;6.25;86.57
36454;BME280;22478;51.740;-1.314;2023-05-16T00:39:57;101152.60;;;7.04;81.88
36454;BME280;22478;51.740;-1.314;2023-05-16T00:42:24;101150.09;;;7.91;75.21
36454;BME280;22478;51.740;-1.314;2023-05-16T00:44:51;101154.16;;;7.77;78.44
36454;BME280;22478;51.740;-1.314;2023-05-16T00:47:19;101153.32;;;6.85;79.59
36454;BME280;22478;51.740;-1.314;2023-05-16T00:49:46;101146.60;;;7.29;75.11
36454;BME280;22478;51.740;-1.314;2023-05-16T00:52:14;101148.61;;;8.41;74.89
36454;BME280;22478;51.740;-1.314;2023-05-16T00:54:42;101146.82;;;8.20;75.33
36454;BME280;22478;51.740;-1.314;2023-05-16T00:57:09;101149.23;;;7.71;75.97
36454;BME280;22478;51.740;-1.314;2023-05-16T00:59:36;101152.74;;;5.98;79.83
36454;BME280;22478;51.740;-1.314;2023-05-16T01:02:04;101150.27;;;7.31;74.36
36454;BME280;22478;51.740;-1.314;2023-05-16T01:04:32;101158.43;;;4.98;88.95
36454;BME280;22478;51.740;-1.314;2023-05-16T01:07:00;101154.38;;;6.11;83.02
36454;BME280;22478;51.740;-1.314;2023-05-16T01:09:28;101155.02;;;7.36;79.82
36454;BME280;22478;51.740;-1.314;2023-05-16T01:11:59;101161.26;;;3.78;90.19
36454;BME280;22478;51.740;-1.314;2023-05-16T01:14:35;101162.25;;;2.12;100.00
36454;BME280;22478;51.740;-1.314;2023-05-16T01:17:09;101160.57;;;2.89;100.00
36454;BME280;22478;51.740;-1.314;2023-05-16T01:19:52;101166.57;;;1.50;100.00
36454;BME280;22478;51.740;-1.314;2023-05-16T01:22:29;101170.03;;;2.11;100.00
36454;BME280;22478;51.740;-1.314;2023-05-16T01:25:09;101164.51;;;2.68;100.00
36454;BME280;22478;51.740;-1.314;2023-05-16T01:27:38;101168.68;;;0.47;100.00
36454;BME280;22478;51.740;-1.314;2023-05-16T01:30:16;101166.16;;;3.62;100.00
36454;BME280;22478;51.740;-1.314;2023-05-16T01:32:44;101165.10;;;1.23;100.00
36454;BME280;22478;51.740;-1.314;2023-05-16T01:35:14;101166.42;;;1.09;100.00
36454;BME280;22478;51.740;-1.314;2023-05-16T01:37:46;101159.89;;;1.89;100.00
36454;BME280;22478;51.740;-1.314;2023-05-16T01:40:18;101162.42;;;1.81;100.00
36454;BME280;22478;51.740;-1.314;2023-05-16T01:42:49;101161.67;;;3.08;100.00
36454;BME280;22478;51.740;-1.314;2023-05-16T01:45:24;101174.05;;;0.21;100.00
36454;BME280;22478;51.740;-1.314;2023-05-16T01:47:59;101173.55;;;1.14;100.00
36454;BME280;22478;51.740;-1.314;2023-05-16T01:50:34;101169.51;;;1.62;100.00
36454;BME280;22478;51.740;-1.314;2023-05-16T01:53:06;101166.93;;;3.25;100.00
36454;BME280;22478;51.740;-1.314;2023-05-16T01:55:38;101165.33;;;4.48;100.00
36454;BME280;22478;51.740;-1.314;2023-05-16T01:58:09;101165.15;;;4.26;100.00
36454;BME280;22478;51.740;-1.314;2023-05-16T02:00:37;101161.76;;;4.96;96.43
36454;BME280;22478;51.740;-1.314;2023-05-16T02:03:04;101157.12;;;5.45;94.16
36454;BME280;22478;51.740;-1.314;2023-05-16T02:05:31;101152.53;;;6.80;87.89
36454;BME280;22478;51.740;-1.314;2023-05-16T02:07:59;101146.10;;;6.23;85.07
36454;BME280;22478;51.740;-1.314;2023-05-16T02:10:27;101147.16;;;6.37;82.35
36454;BME280;22478;51.740;-1.314;2023-05-16T02:12:53;101148.93;;;5.68;85.72
36454;BME280;22478;51.740;-1.314;2023-05-16T02:15:20;101148.06;;;7.00;83.14
36454;BME280;22478;51.740;-1.314;2023-05-16T02:17:48;101146.78;;;6.78;80.12
36454;BME280;22478;51.740;-1.314;2023-05-16T02:20:15;101145.53;;;7.73;80.05
36454;BME280;22478;51.740;-1.314;2023-05-16T02:22:42;101144.31;;;6.20;78.88
36454;BME280;22478;51.740;-1.314;2023-05-16T02:25:09;101146.06;;;6.64;78.17
36454;BME280;22478;51.740;-1.314;2023-05-16T02:27:36;101146.39;;;6.33;79.71
36454;BME280;22478;51.740;-1.314;2023-05-16T02:30:04;101151.12;;;7.13;81.70
36454;BME280;22478;51.740;-1.314;2023-05-16T02:32:32;101145.99;;;7.08;77.59
36454;BME280;22478;51.740;-1.314;2023-05-16T02:34:59;101151.93;;;5.60;84.47
36454;BME280;22478;51.740;-1.314;2023-05-16T02:37:26;101156.81;;;4.72;87.60
36454;BME280;22478;51.740;-1.314;2023-05-16T02:39:53;101162.73;;;4.08;92.40
36454;BME280;22478;51.740;-1.314;2023-05-16T02:42:20;101152.83;;;5.68;86.11
36454;BME280;22478;51.740;-1.314;2023-05-16T02:44:47;101151.59;;;6.12;82.28
36454;BME280;22478;51.740;-1.314;2023-05-16T02:47:15;101151.36;;;6.82;80.94
36454;BME280;22478;51.740;-1.314;2023-05-16T02:49:42;101152.10;;;5.94;79.20
36454;BME280;22478;51.740;-1.314;2023-05-16T02:52:09;101151.34;;;6.43;79.86
36454;BME280;22478;51.740;-1.314;2023-05-16T02:54:36;101154.32;;;5.45;81.85
36454;BME280;22478;51.740;-1.314;2023-05-16T02:57:04;101156.00;;;5.39;80.94
36454;BME280;22478;51.740;-1.314;2023-05-16T02:59:31;101166.80;;;5.13;88.31
36454;BME280;22478;51.740;-1.314;2023-05-16T03:01:58;101167.31;;;5.05;88.00
36454;BME280;22478;51.740;-1.314;2023-05-16T03:04:25;101167.04;;;4.20;92.11
36454;BME280;22478;51.740;-1.314;2023-05-16T03:06:53;101168.96;;;2.18;100.00
36454;BME280;22478;51.740;-1.314;2023-05-16T03:09:20;101168.39;;;1.64;100.00
36454;BME280;22478;51.740;-1.314;2023-05-16T03:11:47;101168.54;;;2.27;100.00
36454;BME280;22478;51.740;-1.314;2023-05-16T03:14:14;101172.59;;;0.56;100.00
36454;BME280;22478;51.740;-1.314;2023-05-16T03:16:41;101164.83;;;1.98;100.00
36454;BME280;22478;51.740;-1.314;2023-05-16T03:19:08;101174.49;;;0.30;100.00
36454;BME280;22478;51.740;-1.314;2023-05-16T03:21:35;101158.43;;;3.36;100.00
36454;BME280;22478;51.740;-1.314;2023-05-16T03:24:03;101163.24;;;1.57;100.00
36454;BME280;22478;51.740;-1.314;2023-05-16T03:26:30;101153.76;;;3.86;100.00
36454;BME280;22478;51.740;-1.314;2023-05-16T03:28:57;101155.20;;;3.12;100.00
36454;BME280;22478;51.740;-1.314;2023-05-16T03:31:24;101162.47;;;1.07;100.00
36454;BME280;22478;51.740;-1.314;2023-05-16T03:33:51;101153.26;;;3.42;100.00
36454;BME280;22478;51.740;-1.314;2023-05-16T03:36:20;101150.38;;;1.95;100.00
36454;BME280;22478;51.740;-1.314;2023-05-16T03:38:48;101153.15;;;0.99;100.00
36454;BME280;22478;51.740;-1.314;2023-05-16T03:41:15;101151.90;;;2.13;100.00
36454;BME280;22478;51.740;-1.314;2023-05-16T03:43:42;101154.99;;;1.86;100.00
36454;BME280;22478;51.740;-1.314;2023-05-16T03:46:09;101159.78;;;0.91;100.00
36454;BME280;22478;51.740;-1.314;2023-05-16T03:48:36;101159.30;;;1.95;100.00
36454;BME280;22478;51.740;-1.314;2023-05-16T03:51:04;101162.66;;;2.14;100.00
36454;BME280;22478;51.740;-1.314;2023-05-16T03:53:31;101163.85;;;2.78;100.00
36454;BME280;22478;51.740;-1.314;2023-05-16T03:55:58;101160.31;;;3.75;99.25
36454;BME280;22478;51.740;-1.314;2023-05-16T03:58:25;101157.73;;;3.16;96.97
36454;BME280;22478;51.740;-1.314;2023-05-16T04:00:52;101165.81;;;0.78;100.00
36454;BME280;22478;51.740;-1.314;2023-05-16T04:03:19;101161.61;;;2.45;100.00
36454;BME280;22478;51.740;-1.314;2023-05-16T04:05:47;101164.55;;;1.00;100.00
36454;BME280;22478;51.740;-1.314;2023-05-16T04:08:14;101164.49;;;2.34;100.00
36454;BME280;22478;51.740;-1.314;2023-05-16T04:10:41;101162.82;;;2.15;100.00
36454;BME280;22478;51.740;-1.314;2023-05-16T04:13:08;101162.69;;;3.07;100.00
36454;BME280;22478;51.740;-1.314;2023-05-16T04:15:36;101153.95;;;3.93;95.11
36454;BME280;22478;51.740;-1.314;2023-05-16T04:18:03;101153.85;;;4.02;95.61
36454;BME280;22478;51.740;-1.314;2023-05-16T04:20:30;101161.09;;;3.57;98.57
36454;BME280;22478;51.740;-1.314;2023-05-16T04:22:57;101157.61;;;3.22;97.70
36454;BME280;22478;51.740;-1.314;2023-05-16T04:25:24;101164.75;;;3.04;100.00
36454;BME280;22478;51.740;-1.314;2023-05-16T04:27:52;101169.64;;;2.45;98.65
36454;BME280;22478;51.740;-1.314;2023-05-16T04:30:19;101164.17;;;3.56;98.53
36454;BME280;22478;51.740;-1.314;2023-05-16T04:32:46;101164.07;;;3.79;95.21
36454;BME280;22478;51.740;-1.314;2023-05-16T04:35:13;101170.99;;;2.96;98.32
36454;BME280;22478;51.740;-1.314;2023-05-16T04:37:40;101174.19;;;3.06;100.00
36454;BME280;22478;51.740;-1.314;2023-05-16T04:40:08;101180.31;;;1.08;100.00
36454;BME280;22478;51.740;-1.314;2023-05-16T04:42:35;101174.81;;;1.91;100.00
36454;BME280;22478;51.740;-1.314;2023-05-16T04:45:03;101184.07;;;0.82;100.00
36454;BME280;22478;51.740;-1.314;2023-05-16T04:47:31;101176.19;;;2.11;100.00
36454;BME280;22478;51.740;-1.314;2023-05-16T04:49:59;101181.62;;;1.65;100.00
36454;BME280;22478;51.740;-1.314;2023-05-16T04:52:26;101184.21;;;0.82;100.00
36454;BME280;22478;51.740;-1.314;2023-05-16T04:54:53;101185.76;;;0.02;100.00
36454;BME280;22478;51.740;-1.314;2023-05-16T04:57:21;101187.96;;;-0.36;100.00
36454;BME280;22478;51.740;-1.314;2023-05-16T04:59:48;101186.16;;;0.33;100.00
36454;BME280;22478;51.740;-1.314;2023-05-16T05:02:15;101186.39;;;0.74;100.00
36454;BME280;22478;51.740;-1.314;2023-05-16T05:04:42;101189.01;;;1.49;100.00
36454;BME280;22478;51.740;-1.314;2023-05-16T05:07:10;101192.99;;;1.16;100.00
36454;BME280;22478;51.740;-1.314;2023-05-16T05:09:37;101200.46;;;0.24;100.00
36454;BME280;22478;51.740;-1.314;2023-05-16T05:12:05;101203.17;;;0.54;100.00
36454;BME280;22478;51.740;-1.314;2023-05-16T05:14:32;101201.27;;;0.69;100.00
36454;BME280;22478;51.740;-1.314;2023-05-16T05:17:00;101202.94;;;0.73;100.00
36454;BME280;22478;51.740;-1.314;2023-05-16T05:19:27;101204.69;;;0.05;100.00
36454;BME280;22478;51.740;-1.314;2023-05-16T05:21:54;101196.29;;;3.23;100.00
36454;BME280;22478;51.740;-1.314;2023-05-16T05:24:21;101199.80;;;1.57;100.00
36454;BME280;22478;51.740;-1.314;2023-05-16T05:26:49;101207.87;;;0.70;100.00
36454;BME280;22478;51.740;-1.314;2023-05-16T05:29:16;101200.30;;;0.91;100.00
36454;BME280;22478;51.740;-1.314;2023-05-16T05:31:43;101210.35;;;1.41;100.00
36454;BME280;22478;51.740;-1.314;2023-05-16T05:34:10;101208.09;;;2.89;100.00
36454;BME280;22478;51.740;-1.314;2023-05-16T05:36:37;101207.38;;;3.00;100.00
36454;BME280;22478;51.740;-1.314;2023-05-16T05:39:05;101210.19;;;2.46;100.00
36454;BME280;22478;51.740;-1.314;2023-05-16T05:41:32;101212.57;;;2.75;100.00
36454;BME280;22478;51.740;-1.314;2023-05-16T05:43:59;101222.12;;;0.61;100.00
36454;BME280;22478;51.740;-1.314;2023-05-16T05:46:26;101217.82;;;1.83;100.00
36454;BME280;22478;51.740;-1.314;2023-05-16T05:48:53;101231.24;;;-0.47;100.00
36454;BME280;22478;51.740;-1.314;2023-05-16T05:51:20;101227.69;;;0.37;100.00
36454;BME280;22478;51.740;-1.314;2023-05-16T05:53:48;101229.43;;;-0.19;100.00
36454;BME280;22478;51.740;-1.314;2023-05-16T05:56:15;101228.66;;;1.78;100.00
36454;BME280;22478;51.740;-1.314;2023-05-16T05:58:42;101231.56;;;2.02;100.00
36454;BME280;22478;51.740;-1.314;2023-05-16T06:01:09;101235.63;;;0.87;100.00
36454;BME280;22478;51.740;-1.314;2023-05-16T06:03:37;101237.08;;;0.09;100.00
36454;BME280;22478;51.740;-1.314;2023-05-16T06:06:04;101239.40;;;2.19;100.00
36454;BME280;22478;51.740;-1.314;2023-05-16T06:08:31;101244.35;;;0.94;100.00
36454;BME280;22478;51.740;-1.314;2023-05-16T06:10:59;101246.82;;;1.23;100.00
36454;BME280;22478;51.740;-1.314;2023-05-16T06:13:27;101250.06;;;0.55;100.00
36454;BME280;22478;51.740;-1.314;2023-05-16T06:15:54;101252.40;;;1.58;100.00
36454;BME280;22478;51.740;-1.314;2023-05-16T06:18:21;101252.62;;;1.69;100.00
36454;BME280;22478;51.740;-1.314;2023-05-16T06:20:48;101246.45;;;3.32;100.00
36454;BME280;22478;51.740;-1.314;2023-05-16T06:23:15;101253.45;;;0.53;100.00
36454;BME280;22478;51.740;-1.314;2023-05-16T06:25:42;101243.66;;;2.24;100.00
36454;BME280;22478;51.740;-1.314;2023-05-16T06:28:09;101243.01;;;2.75;100.00
36454;BME280;22478;51.740;-1.314;2023-05-16T06:30:37;101247.77;;;1.69;100.00
36454;BME280;22478;51.740;-1.314;2023-05-16T06:33:04;101246.66;;;2.61;100.00
36454;BME280;22478;51.740;-1.314;2023-05-16T06:35:31;101246.05;;;3.14;100.00
36454;BME280;22478;51.740;-1.314;2023-05-16T06:37:58;101247.45;;;2.25;100.00
36454;BME280;22478;51.740;-1.314;2023-05-16T06:40:25;101246.73;;;2.83;100.00
36454;BME280;22478;51.740;-1.314;2023-05-16T06:42:52;101258.08;;;1.09;100.00
36454;BME280;22478;51.740;-1.314;2023-05-16T06:45:19;101247.48;;;2.26;100.00
36454;BME280;22478;51.740;-1.314;2023-05-16T06:47:46;101250.11;;;2.26;100.00
36454;BME280;22478;51.740;-1.314;2023-05-16T06:50:13;101256.09;;;2.81;100.00
36454;BME280;22478;51.740;-1.314;2023-05-16T06:52:40;101247.96;;;4.03;100.00
36454;BME280;22478;51.740;-1.314;2023-05-16T06:55:08;101250.50;;;2.91;100.00
36454;BME280;22478;51.740;-1.314;2023-05-16T06:57:36;101250.10;;;3.50;100.00
36454;BME280;22478;51.740;-1.314;2023-05-16T07:00:03;101248.06;;;3.10;100.00
36454;BME280;22478;51.740;-1.314;2023-05-16T07:02:31;101256.88;;;2.89;100.00
36454;BME280;22478;51.740;-1.314;2023-05-16T07:04:58;101257.89;;;3.21;100.00
36454;BME280;22478;51.740;-1.314;2023-05-16T07:07:25;101256.72;;;3.50;100.00
36454;BME280;22478;51.740;-1.314;2023-05-16T07:09:52;101259.72;;;2.65;100.00
36454;BME280;22478;51.740;-1.314;2023-05-16T07:12:18;101265.65;;;2.96;100.00
36454;BME280;22478;51.740;-1.314;2023-05-16T07:14:46;101257.66;;;4.28;100.00
36454;BME280;22478;51.740;-1.314;2023-05-16T07:17:13;101257.64;;;4.05;100.00
36454;BME280;22478;51.740;-1.314;2023-05-16T07:19:40;101262.60;;;3.19;100.00
36454;BME280;22478;51.740;-1.314;2023-05-16T07:22:07;101262.73;;;3.09;100.00
36454;BME280;22478;51.740;-1.314;2023-05-16T07:24:34;101265.52;;;4.17;100.00
36454;BME280;22478;51.740;-1.314;2023-05-16T07:27:02;101269.39;;;4.05;100.00
36454;BME280;22478;51.740;-1.314;2023-05-16T07:29:29;101270.98;;;4.43;100.00
36454;BME280;22478;51.740;-1.314;2023-05-16T07:31:56;101271.24;;;4.18;100.00
36454;BME280;22478;51.740;-1.314;2023-05-16T07:34:23;101273.66;;;4.08;100.00
36454;BME280;22478;51.740;-1.314;2023-05-16T07:36:50;101267.86;;;4.31;100.00
36454;BME280;22478;51.740;-1.314;2023-05-16T07:39:17;101274.12;;;5.64;100.00
36454;BME280;22478;51.740;-1.314;2023-05-16T07:41:44;101275.71;;;6.05;100.00
36454;BME280;22478;51.740;-1.314;2023-05-16T07:44:11;101276.77;;;4.53;100.00
36454;BME280;22478;51.740;-1.314;2023-05-16T07:46:39;101272.55;;;5.87;98.76
36454;BME280;22478;51.740;-1.314;2023-05-16T07:49:06;101270.05;;;5.90;94.86
36454;BME280;22478;51.740;-1.314;2023-05-16T07:51:33;101268.81;;;5.47;96.26
36454;BME280;22478;51.740;-1.314;2023-05-16T07:54:00;101270.12;;;6.01;92.75
36454;BME280;22478;51.740;-1.314;2023-05-16T07:56:27;101272.70;;;6.13;92.18
36454;BME280;22478;51.740;-1.314;2023-05-16T07:58:54;101268.95;;;5.23;99.67
36454;BME280;22478;51.740;-1.314;2023-05-16T08:01:21;101274.20;;;4.08;100.00
36454;BME280;22478;51.740;-1.314;2023-05-16T08:03:48;101274.79;;;4.20;100.00
36454;BME280;22478;51.740;-1.314;2023-05-16T08:06:15;101281.09;;;4.57;100.00
36454;BME280;22478;51.740;-1.314;2023-05-16T08:08:42;101272.09;;;6.09;98.98
36454;BME280;22478;51.740;-1.314;2023-05-16T08:11:09;101269.16;;;7.07;94.85
36454;BME280;22478;51.740;-1.314;2023-05-16T08:13:36;101271.73;;;5.12;92.24
36454;BME280;22478;51.740;-1.314;2023-05-16T08:16:04;101258.57;;;6.83;87.64
36454;BME280;22478;51.740;-1.314;2023-05-16T08:18:31;101261.23;;;6.95;84.29
36454;BME280;22478;51.740;-1.314;2023-05-16T08:20:58;101264.81;;;8.21;76.16
36454;BME280;22478;51.740;-1.314;2023-05-16T08:23:25;101267.87;;;8.30;77.85
36454;BME280;22478;51.740;-1.314;2023-05-16T08:25:52;101267.89;;;8.50;77.83
36454;BME280;22478;51.740;-1.314;2023-05-16T08:28:19;101264.54;;;9.02;73.22
36454;BME280;22478;51.740;-1.314;2023-05-16T08:30:46;101267.29;;;8.75;71.14
36454;BME280;22478;51.740;-1.314;2023-05-16T08:33:13;101264.93;;;8.05;73.94
36454;BME280;22478;51.740;-1.314;2023-05-16T08:35:41;101263.71;;;9.08;70.92
36454;BME280;22478;51.740;-1.314;2023-05-16T08:38:09;101262.56;;;9.10;69.66
36454;BME280;22478;51.740;-1.314;2023-05-16T08:40:36;101261.77;;;8.28;68.04
36454;BME280;22478;51.740;-1.314;2023-05-16T08:43:03;101257.06;;;8.97;66.59
36454;BME280;22478;51.740;-1.314;2023-05-16T08:45:31;101261.70;;;8.58;73.54
36454;BME280;22478;51.740;-1.314;2023-05-16T08:48:00;101265.84;;;9.12;68.85
36454;BME280;22478;51.740;-1.314;2023-05-16T08:50:30;101265.15;;;8.95;70.71
36454;BME280;22478;51.740;-1.314;2023-05-16T08:53:01;101266.82;;;6.72;81.71
36454;BME280;22478;51.740;-1.314;2023-05-16T08:55:31;101269.71;;;8.72;74.89
36454;BME280;22478;51.740;-1.314;2023-05-16T08:57:59;101269.02;;;6.40;76.72
36454;BME280;22478;51.740;-1.314;2023-05-16T09:00:27;101270.15;;;9.97;67.71
36454;BME280;22478;51.740;-1.314;2023-05-16T09:02:55;101267.97;;;8.19;69.32
36454;BME280;22478;51.740;-1.314;2023-05-16T09:05:22;101263.24;;;8.99;69.28
36454;BME280;22478;51.740;-1.314;2023-05-16T09:07:50;101263.36;;;10.22;65.49
36454;BME280;22478;51.740;-1.314;2023-05-16T09:10:17;101265.11;;;8.77;63.77
36454;BME280;22478;51.740;-1.314;2023-05-16T09:12:44;101268.42;;;8.83;64.96
36454;BME280;22478;51.740;-1.314;2023-05-16T09:15:11;101275.25;;;6.92;69.32
36454;BME280;22478;51.740;-1.314;2023-05-16T09:17:39;101273.55;;;9.99;62.07
36454;BME280;22478;51.740;-1.314;2023-05-16T09:20:08;101268.54;;;11.83;54.34
36454;BME280;22478;51.740;-1.314;2023-05-16T09:22:36;101265.76;;;11.39;53.26
36454;BME280;22478;51.740;-1.314;2023-05-16T09:25:04;101261.02;;;12.71;53.03
36454;BME280;22478;51.740;-1.314;2023-05-16T09:27:32;101261.14;;;12.96;51.10
36454;BME280;22478;51.740;-1.314;2023-05-16T09:30:00;101265.13;;;12.14;51.90
36454;BME280;22478;51.740;-1.314;2023-05-16T09:32:28;101262.19;;;13.08;50.71
36454;BME280;22478;51.740;-1.314;2023-05-16T09:34:57;101258.79;;;12.28;51.04
36454;BME280;22478;51.740;-1.314;2023-05-16T09:37:24;101266.24;;;10.75;53.78
36454;BME280;22478;51.740;-1.314;2023-05-16T09:39:53;101269.17;;;9.83;53.36
36454;BME280;22478;51.740;-1.314;2023-05-16T09:42:20;101262.87;;;11.86;52.06
36454;BME280;22478;51.740;-1.314;2023-05-16T09:44:49;101275.09;;;7.67;62.25
36454;BME280;22478;51.740;-1.314;2023-05-16T09:47:17;101274.86;;;9.16;66.22
36454;BME280;22478;51.740;-1.314;2023-05-16T09:49:45;101271.33;;;10.30;59.14
36454;BME280;22478;51.740;-1.314;2023-05-16T09:52:14;101274.47;;;9.55;61.43
36454;BME280;22478;51.740;-1.314;2023-05-16T09:54:42;101275.42;;;7.81;61.31
36454;BME280;22478;51.740;-1.314;2023-05-16T09:57:09;101276.71;;;8.59;65.24
36454;BME280;22478;51.740;-1.314;2023-05-16T09:59:37;101278.83;;;8.53;67.02
36454;BME280;22478;51.740;-1.314;2023-05-16T10:02:06;101271.51;;;11.19;60.15
36454;BME280;22478;51.740;-1.314;2023-05-16T10:04:33;101254.36;;;14.82;48.65
36454;BME280;22478;51.740;-1.314;2023-05-16T10:07:02;101251.34;;;12.34;48.81
36454;BME280;22478;51.740;-1.314;2023-05-16T10:09:31;101253.84;;;14.36;46.66
36454;BME280;22478;51.740;-1.314;2023-05-16T10:12:01;101249.44;;;12.90;48.25
36454;BME280;22478;51.740;-1.314;2023-05-16T10:14:29;101251.22;;;14.86;44.92
36454;BME280;22478;51.740;-1.314;2023-05-16T10:17:00;101252.75;;;10.84;48.77
36454;BME280;22478;51.740;-1.314;2023-05-16T10:19:31;101265.11;;;8.54;57.20
36454;BME280;22478;51.740;-1.314;2023-05-16T10:22:03;101268.02;;;7.70;62.15
36454;BME280;22478;51.740;-1.314;2023-05-16T10:24:36;101268.13;;;9.91;56.69
36454;BME280;22478;51.740;-1.314;2023-05-16T10:27:05;101266.28;;;10.18;58.93
36454;BME280;22478;51.740;-1.314;2023-05-16T10:29:33;101252.14;;;12.73;51.10
36454;BME280;22478;51.740;-1.314;2023-05-16T10:32:02;101251.31;;;12.08;50.62
36454;BME280;22478;51.740;-1.314;2023-05-16T10:34:30;101249.89;;;11.56;51.17
36454;BME280;22478;51.740;-1.314;2023-05-16T10:36:58;101245.91;;;12.57;48.68
36454;BME280;22478;51.740;-1.314;2023-05-16T10:39:26;101261.37;;;9.72;47.23
36454;BME280;22478;51.740;-1.314;2023-05-16T10:41:55;101254.36;;;13.71;42.91
36454;BME280;22478;51.740;-1.314;2023-05-16T10:44:22;101258.01;;;13.66;44.88
36454;BME280;22478;51.740;-1.314;2023-05-16T10:46:49;101259.01;;;13.33;47.12
36454;BME280;22478;51.740;-1.314;2023-05-16T10:49:22;101255.32;;;13.41;43.50
36454;BME280;22478;51.740;-1.314;2023-05-16T10:52:03;101270.40;;;8.61;53.27
36454;BME280;22478;51.740;-1.314;2023-05-16T10:54:35;101259.07;;;11.50;49.18
36454;BME280;22478;51.740;-1.314;2023-05-16T10:57:04;101263.09;;;10.14;53.35
36454;BME280;22478;51.740;-1.314;2023-05-16T10:59:40;101261.02;;;10.60;54.90
36454;BME280;22478;51.740;-1.314;2023-05-16T11:02:26;101261.01;;;11.07;50.30
36454;BME280;22478;51.740;-1.314;2023-05-16T11:04:55;101253.44;;;14.20;45.54
36454;BME280;22478;51.740;-1.314;2023-05-16T11:07:23;101240.18;;;16.24;41.82
36454;BME280;22478;51.740;-1.314;2023-05-16T11:10:02;101238.04;;;15.32;42.03
36454;BME280;22478;51.740;-1.314;2023-05-16T11:12:38;101250.94;;;12.19;47.20
36454;BME280;22478;51.740;-1.314;2023-05-16T11:15:26;101249.19;;;11.68;48.09
36454;BME280;22478;51.740;-1.314;2023-05-16T11:18:14;101241.47;;;15.33;45.30
36454;BME280;22478;51.740;-1.314;2023-05-16T11:20:42;101236.15;;;15.62;41.78
36454;BME280;22478;51.740;-1.314;2023-05-16T11:23:25;101239.68;;;14.55;43.63
36454;BME280;22478;51.740;-1.314;2023-05-16T11:25:54;101244.38;;;14.15;45.20
36454;BME280;22478;51.740;-1.314;2023-05-16T11:28:24;101251.12;;;10.42;51.66
36454;BME280;22478;51.740;-1.314;2023-05-16T11:30:53;101251.33;;;11.00;54.23
36454;BME280;22478;51.740;-1.314;2023-05-16T11:33:20;101251.94;;;10.01;57.34
36454;BME280;22478;51.740;-1.314;2023-05-16T11:36:06;101241.11;;;11.83;55.73
36454;BME280;22478;51.740;-1.314;2023-05-16T11:38:34;101238.83;;;12.55;50.45
36454;BME280;22478;51.740;-1.314;2023-05-16T11:41:03;101232.48;;;12.09;51.63
36454;BME280;22478;51.740;-1.314;2023-05-16T11:43:37;101248.46;;;9.51;59.41
36454;BME280;22478;51.740;-1.314;2023-05-16T11:46:05;101235.11;;;10.78;53.96
36454;BME280;22478;51.740;-1.314;2023-05-16T11:48:32;101237.66;;;11.38;52.60
36454;BME280;22478;51.740;-1.314;2023-05-16T11:50:59;101230.46;;;15.26;47.92
36454;BME280;22478;51.740;-1.314;2023-05-16T11:53:27;101225.88;;;13.64;46.45
36454;BME280;22478;51.740;-1.314;2023-05-16T11:55:54;101224.85;;;9.81;51.45
36454;BME280;22478;51.740;-1.314;2023-05-16T11:58:22;101232.25;;;13.12;48.67
36454;BME280;22478;51.740;-1.314;2023-05-16T12:00:50;101230.46;;;12.30;51.33
36454;BME280;22478;51.740;-1.314;2023-05-16T12:03:18;101243.81;;;9.62;55.61
36454;BME280;22478;51.740;-1.314;2023-05-16T12:05:50;101236.72;;;12.04;53.49
36454;BME280;22478;51.740;-1.314;2023-05-16T12:08:17;101241.40;;;11.39;51.28
36454;BME280;22478;51.740;-1.314;2023-05-16T12:10:44;101238.06;;;12.22;52.42
36454;BME280;22478;51.740;-1.314;2023-05-16T12:13:12;101230.45;;;12.31;48.37
36454;BME280;22478;51.740;-1.314;2023-05-16T12:15:40;101230.93;;;11.77;49.05
36454;BME280;22478;51.740;-1.314;2023-05-16T12:18:08;101227.99;;;12.07;52.63
36454;BME280;22478;51.740;-1.314;2023-05-16T12:20:35;101233.33;;;10.03;55.15
36454;BME280;22478;51.740;-1.314;2023-05-16T12:23:03;101232.83;;;12.48;50.13
36454;BME280;22478;51.740;-1.314;2023-05-16T12:25:31;101231.16;;;14.01;46.90
36454;BME280;22478;51.740;-1.314;2023-05-16T12:27:59;101227.25;;;14.22;45.01
36454;BME280;22478;51.740;-1.314;2023-05-16T12:30:28;101215.92;;;15.23;43.76
36454;BME280;22478;51.740;-1.314;2023-05-16T12:32:56;101229.24;;;11.05;49.23
36454;BME280;22478;51.740;-1.314;2023-05-16T12:35:24;101229.79;;;10.15;55.24
36454;BME280;22478;51.740;-1.314;2023-05-16T12:37:52;101235.67;;;11.06;58.30
36454;BME280;22478;51.740;-1.314;2023-05-16T12:40:19;101231.58;;;12.36;57.01
36454;BME280;22478;51.740;-1.314;2023-05-16T12:42:48;101233.79;;;12.40;53.71
36454;BME280;22478;51.740;-1.314;2023-05-16T12:45:16;101231.37;;;12.85;52.87
36454;BME280;22478;51.740;-1.314;2023-05-16T12:47:44;101235.21;;;11.75;53.72